Danville, Alabama
Current Conditions -  °F | °C
As of 3:35 PM on Saturday 20 Dec 2014 (Local Time) from KCMD Reporting Station
Clear Clear  
Wind Chill: 51°   Ceiling: Unl
Heat Index: 51°   Visibility: 10mi
Dew Point: 32°   Wind: 7mph
Humidity: 49%   Direction: 350°N
Pressure: 30.19"   Gusts: NA
Location:  34.41°N, 87.08°W
Report Text: KCMD 202135Z AUTO 35006KT 10SM CLR 11/00 A3019 RMK AO2 T01050002
Loading
Personal Weather Stations






























Interactive Weather Map New forecast layout! Learn more

10-Day Weather Forecast

Advertisements
Track Severe Weather on mobile